Brayton, United Kingdom
Current Conditions -  °F | °C
As of 2:50 PM on Thursday 30 Oct 2014 (Local Time) from EGXU Reporting Station
Haze Haze  
Wind Chill: 63°   Ceiling: 3700
Heat Index: 63°   Visibility: 6mi
Dew Point: 57°   Wind: 7mph
Humidity: 82%   Direction: 200°SSW
Pressure: 29.97"   Gusts: NA
Location:  53.77°N, 1.09°W
Report Text: EGXU 301450Z 20006KT 9000 HZ FEW015 OVC037 17/14 Q1015 BLU TEMPO SCT015 WHT
Loading
Personal Weather Stations






























Interactive Weather Map
Tropical Storm Tracking
New forecast layout! Learn more

10-Day Weather Forecast

Advertisements
Track Severe Weather on mobile